Time,TemperatureF,DewpointF,PressureIn,WindDirection,WindDirectionDegrees,WindSpeedMPH,WindSpeedGustMPH,Humidity,HourlyPrecipIn,Conditions,Clouds,dailyrainin,SoftwareType,DateUTC
2013-05-02 00:01:00,46.6,36.6,30.24,North,0,0.0,0.0,68,0.00,,,0.00,WUHU216HW,2013-05-02 07:01:00,
2013-05-02 00:06:00,46.4,36.9,30.24,North,0,0.0,0.0,69,0.00,,,0.00,WUHU216HW,2013-05-02 07:06:00,
2013-05-02 00:11:00,46.3,36.3,30.24,North,0,0.0,0.0,68,0.00,,,0.00,WUHU216HW,2013-05-02 07:11:00,
2013-05-02 00:16:00,46.3,36.3,30.24,North,0,0.0,0.0,68,0.00,,,0.00,WUHU216HW,2013-05-02 07:16:00,
2013-05-02 00:21:00,46.1,36.1,30.25,North,0,0.0,0.0,68,0.00,,,0.00,WUHU216HW,2013-05-02 07:21:00,
2013-05-02 00:26:00,46.1,36.1,30.24,North,0,0.0,0.0,68,0.00,,,0.00,WUHU216HW,2013-05-02 07:26:00,
2013-05-02 00:31:00,46.1,36.9,30.24,North,0,0.0,0.0,70,0.00,,,0.00,WUHU216HW,2013-05-02 07:31:00,
2013-05-02 00:36:00,45.9,36.7,30.24,North,0,0.0,0.0,70,0.00,,,0.00,WUHU216HW,2013-05-02 07:36:00,
2013-05-02 00:41:00,45.9,36.7,30.24,North,0,0.0,0.0,70,0.00,,,0.00,WUHU216HW,2013-05-02 07:41:00,
2013-05-02 00:46:00,45.7,36.2,30.24,North,0,0.0,0.0,69,0.00,,,0.00,WUHU216HW,2013-05-02 07:46:00,
2013-05-02 00:51:00,45.7,36.2,30.24,North,0,0.0,0.0,69,0.00,,,0.00,WUHU216HW,2013-05-02 07:51:00,
2013-05-02 00:56:00,45.7,36.2,30.24,North,0,0.0,0.0,69,0.00,,,0.00,WUHU216HW,2013-05-02 07:56:00,
2013-05-02 01:01:00,45.7,36.2,30.24,North,0,0.0,0.0,69,0.00,,,0.00,WUHU216HW,2013-05-02 08:01:00,
2013-05-02 01:06:00,45.5,36.0,30.24,North,0,0.0,0.0,69,0.00,,,0.00,WUHU216HW,2013-05-02 08:06:00,
2013-05-02 01:11:00,45.4,36.6,30.24,North,0,0.0,0.0,71,0.00,,,0.00,WUHU216HW,2013-05-02 08:11:00,
2013-05-02 01:16:00,45.4,36.6,30.24,North,0,0.0,0.0,71,0.00,,,0.00,WUHU216HW,2013-05-02 08:16:00,
2013-05-02 01:21:00,45.2,37.0,30.24,North,0,0.0,0.0,73,0.00,,,0.00,WUHU216HW,2013-05-02 08:21:00,
2013-05-02 01:26:00,45.2,37.0,30.25,North,0,0.0,0.0,73,0.00,,,0.00,WUHU216HW,2013-05-02 08:26:00,
2013-05-02 01:31:00,45.0,37.2,30.25,North,0,0.0,0.0,74,0.00,,,0.00,WUHU216HW,2013-05-02 08:31:00,
2013-05-02 01:36:00,45.0,37.2,30.24,North,0,0.0,0.0,74,0.00,,,0.00,WUHU216HW,2013-05-02 08:36:00,
2013-05-02 01:41:00,45.0,36.8,30.24,North,0,0.0,0.0,73,0.00,,,0.00,WUHU216HW,2013-05-02 08:41:00,
2013-05-02 01:46:00,45.0,37.2,30.24,North,0,0.0,0.0,74,0.00,,,0.00,WUHU216HW,2013-05-02 08:46:00,
2013-05-02 01:51:00,44.8,37.0,30.24,North,0,0.0,0.0,74,0.00,,,0.00,WUHU216HW,2013-05-02 08:51:00,
2013-05-02 01:56:00,44.8,37.0,30.23,North,0,0.0,0.0,74,0.00,,,0.00,WUHU216HW,2013-05-02 08:56:00,
2013-05-02 02:01:00,44.6,36.8,30.23,North,0,0.0,0.0,74,0.00,,,0.00,WUHU216HW,2013-05-02 09:01:00,
2013-05-02 02:06:00,44.6,36.8,30.23,North,0,0.0,0.0,74,0.00,,,0.00,WUHU216HW,2013-05-02 09:06:00,
2013-05-02 02:11:00,44.5,37.0,30.23,North,0,0.0,0.0,75,0.00,,,0.00,WUHU216HW,2013-05-02 09:11:00,
2013-05-02 02:16:00,44.5,37.4,30.23,North,0,0.0,0.0,76,0.00,,,0.00,WUHU216HW,2013-05-02 09:16:00,
2013-05-02 02:21:00,44.3,36.5,30.23,North,0,0.0,0.0,74,0.00,,,0.00,WUHU216HW,2013-05-02 09:21:00,
2013-05-02 02:26:00,44.3,36.5,30.23,North,0,0.0,0.0,74,0.00,,,0.00,WUHU216HW,2013-05-02 09:26:00,
2013-05-02 02:31:00,44.3,37.2,30.23,North,0,0.0,0.0,76,0.00,,,0.00,WUHU216HW,2013-05-02 09:31:00,
2013-05-02 02:36:00,44.1,37.0,30.23,North,0,0.0,0.0,76,0.00,,,0.00,WUHU216HW,2013-05-02 09:36:00,
2013-05-02 02:41:00,43.9,37.2,30.23,North,0,0.0,0.0,77,0.00,,,0.00,WUHU216HW,2013-05-02 09:41:00,
2013-05-02 02:46:00,43.9,37.2,30.23,North,0,0.0,0.0,77,0.00,,,0.00,WUHU216HW,2013-05-02 09:46:00,
2013-05-02 02:51:00,43.7,37.0,30.23,North,0,0.0,0.0,77,0.00,,,0.00,WUHU216HW,2013-05-02 09:51:00,
2013-05-02 02:56:00,43.6,36.8,30.23,North,0,0.0,0.0,77,0.00,,,0.00,WUHU216HW,2013-05-02 09:56:00,
2013-05-02 03:01:00,43.6,36.8,30.23,North,0,0.0,0.0,77,0.00,,,0.00,WUHU216HW,2013-05-02 10:01:00,
2013-05-02 03:06:00,43.6,36.8,30.23,North,0,0.0,0.0,77,0.00,,,0.00,WUHU216HW,2013-05-02 10:06:00,
2013-05-02 03:11:00,43.4,36.6,30.23,North,0,0.0,0.0,77,0.00,,,0.00,WUHU216HW,2013-05-02 10:11:00,
2013-05-02 03:16:00,43.4,37.0,30.23,North,0,0.0,0.0,78,0.00,,,0.00,WUHU216HW,2013-05-02 10:16:00,
2013-05-02 03:21:00,43.4,36.6,30.23,North,0,0.0,0.0,77,0.00,,,0.00,WUHU216HW,2013-05-02 10:21:00,
2013-05-02 03:26:00,43.2,36.5,30.22,North,0,0.0,0.0,77,0.00,,,0.00,WUHU216HW,2013-05-02 10:26:00,
2013-05-02 03:31:00,43.2,37.4,30.22,North,0,0.0,0.0,80,0.00,,,0.00,WUHU216HW,2013-05-02 10:31:00,
2013-05-02 03:37:00,43.0,36.9,30.22,North,0,0.0,0.0,79,0.00,,,0.00,WUHU216HW,2013-05-02 10:37:00,
2013-05-02 03:42:00,42.8,36.5,30.22,North,0,0.0,0.0,78,0.00,,,0.00,WUHU216HW,2013-05-02 10:42:00,
2013-05-02 03:47:00,42.8,36.5,30.21,North,0,0.0,0.0,78,0.00,,,0.00,WUHU216HW,2013-05-02 10:47:00,
2013-05-02 03:52:00,42.7,35.9,30.21,North,0,0.0,0.0,77,0.00,,,0.00,WUHU216HW,2013-05-02 10:52:00,
2013-05-02 03:57:00,42.3,36.2,30.21,North,0,0.0,0.0,79,0.00,,,0.00,WUHU216HW,2013-05-02 10:57:00,
2013-05-02 04:02:00,42.1,36.4,30.21,North,0,0.0,0.0,80,0.00,,,0.00,WUHU216HW,2013-05-02 11:02:00,
2013-05-02 04:07:00,41.9,35.8,30.20,North,0,0.0,0.0,79,0.00,,,0.00,WUHU216HW,2013-05-02 11:07:00,
2013-05-02 04:12:00,41.8,35.6,30.21,North,0,0.0,0.0,79,0.00,,,0.00,WUHU216HW,2013-05-02 11:12:00,
2013-05-02 04:17:00,41.6,35.5,30.21,North,0,0.0,0.0,79,0.00,,,0.00,WUHU216HW,2013-05-02 11:17:00,
2013-05-02 04:22:00,41.4,35.6,30.20,North,0,0.0,0.0,80,0.00,,,0.00,WUHU216HW,2013-05-02 11:22:00,
2013-05-02 04:27:00,41.4,35.3,30.20,North,0,0.0,0.0,79,0.00,,,0.00,WUHU216HW,2013-05-02 11:27:00,
2013-05-02 04:32:00,41.2,35.1,30.21,North,0,0.0,0.0,79,0.00,,,0.00,WUHU216HW,2013-05-02 11:32:00,
2013-05-02 04:37:00,41.2,35.5,30.21,North,0,0.0,0.0,80,0.00,,,0.00,WUHU216HW,2013-05-02 11:37:00,
2013-05-02 04:42:00,41.0,35.6,30.21,North,0,0.0,0.0,81,0.00,,,0.00,WUHU216HW,2013-05-02 11:42:00,
2013-05-02 04:47:00,40.9,35.5,30.21,North,0,0.0,0.0,81,0.00,,,0.00,WUHU216HW,2013-05-02 11:47:00,
2013-05-02 04:52:00,40.9,35.5,30.21,North,0,0.0,0.0,81,0.00,,,0.00,WUHU216HW,2013-05-02 11:52:00,
2013-05-02 04:57:00,40.7,35.3,30.21,North,0,0.0,0.0,81,0.00,,,0.00,WUHU216HW,2013-05-02 11:57:00,
2013-05-02 05:02:00,40.5,35.4,30.21,North,0,0.0,0.0,82,0.00,,,0.00,WUHU216HW,2013-05-02 12:02:00,
2013-05-02 05:07:00,40.3,34.9,30.21,North,0,0.0,0.0,81,0.00,,,0.00,WUHU216HW,2013-05-02 12:07:00,
2013-05-02 05:12:00,40.3,34.9,30.21,North,0,0.0,0.0,81,0.00,,,0.00,WUHU216HW,2013-05-02 12:12:00,
2013-05-02 05:17:00,40.1,34.7,30.21,North,0,0.0,0.0,81,0.00,,,0.00,WUHU216HW,2013-05-02 12:17:00,
2013-05-02 05:22:00,40.0,34.3,30.21,North,0,0.0,0.0,80,0.00,,,0.00,WUHU216HW,2013-05-02 12:22:00,
2013-05-02 05:27:00,40.0,34.6,30.22,North,0,0.0,0.0,81,0.00,,,0.00,WUHU216HW,2013-05-02 12:27:00,
2013-05-02 05:32:00,40.0,34.3,30.22,North,0,0.0,0.0,80,0.00,,,0.00,WUHU216HW,2013-05-02 12:32:00,
2013-05-02 05:37:00,39.8,34.5,30.22,North,0,0.0,0.0,81,0.00,,,0.00,WUHU216HW,2013-05-02 12:37:00,
2013-05-02 05:42:00,39.6,34.3,30.22,North,0,0.0,0.0,81,0.00,,,0.00,WUHU216HW,2013-05-02 12:42:00,
2013-05-02 05:47:00,39.6,34.3,30.21,North,0,0.0,0.0,81,0.00,,,0.00,WUHU216HW,2013-05-02 12:47:00,
2013-05-02 05:52:00,39.4,34.1,30.20,North,0,0.0,0.0,81,0.00,,,0.00,WUHU216HW,2013-05-02 12:52:00,
2013-05-02 05:57:00,39.4,34.1,30.20,North,0,0.0,0.0,81,0.00,,,0.00,WUHU216HW,2013-05-02 12:57:00,
2013-05-02 06:02:00,39.6,34.6,30.20,North,0,0.0,0.0,82,0.00,,,0.00,WUHU216HW,2013-05-02 13:02:00,
2013-05-02 06:07:00,39.4,34.4,30.20,North,0,0.0,0.0,82,0.00,,,0.00,WUHU216HW,2013-05-02 13:07:00,
2013-05-02 06:12:00,39.4,34.4,30.20,North,0,0.0,0.0,82,0.00,,,0.00,WUHU216HW,2013-05-02 13:12:00,
2013-05-02 06:17:00,39.6,34.3,30.20,North,0,0.0,0.0,81,0.00,,,0.00,WUHU216HW,2013-05-02 13:17:00,
2013-05-02 06:22:00,39.6,34.3,30.19,North,0,0.0,0.0,81,0.00,,,0.00,WUHU216HW,2013-05-02 13:22:00,
2013-05-02 06:27:00,39.8,34.1,30.19,North,0,0.0,0.0,80,0.00,,,0.00,WUHU216HW,2013-05-02 13:27:00,
2013-05-02 06:32:00,40.0,34.6,30.19,North,0,0.0,0.0,81,0.00,,,0.00,WUHU216HW,2013-05-02 13:32:00,
2013-05-02 06:37:00,40.5,35.4,30.19,North,0,0.0,0.0,82,0.00,,,0.00,WUHU216HW,2013-05-02 13:37:00,
2013-05-02 06:42:00,40.7,35.6,30.19,North,0,0.0,0.0,82,0.00,,,0.00,WUHU216HW,2013-05-02 13:42:00,
2013-05-02 06:47:00,41.0,36.2,30.19,North,0,0.0,0.0,83,0.00,,,0.00,WUHU216HW,2013-05-02 13:47:00,
2013-05-02 06:52:00,41.6,37.1,30.19,North,0,0.0,0.0,84,0.00,,,0.00,WUHU216HW,2013-05-02 13:52:00,
2013-05-02 06:57:00,41.9,37.7,30.19,North,0,0.0,0.0,85,0.00,,,0.00,WUHU216HW,2013-05-02 13:57:00,
2013-05-02 07:02:00,42.1,37.9,30.19,North,0,0.0,0.0,85,0.00,,,0.00,WUHU216HW,2013-05-02 14:02:00,
2013-05-02 07:07:00,42.5,38.3,30.20,North,0,0.0,0.0,85,0.00,,,0.00,WUHU216HW,2013-05-02 14:07:00,
2013-05-02 07:12:00,42.8,38.4,30.19,North,0,0.0,0.0,84,0.00,,,0.00,WUHU216HW,2013-05-02 14:12:00,
2013-05-02 07:17:00,43.2,38.7,30.20,North,0,0.0,0.0,84,0.00,,,0.00,WUHU216HW,2013-05-02 14:17:00,
2013-05-02 07:22:00,43.6,38.7,30.19,North,0,0.0,0.0,83,0.00,,,0.00,WUHU216HW,2013-05-02 14:22:00,
2013-05-02 07:27:00,43.9,38.8,30.19,North,0,0.0,0.0,82,0.00,,,0.00,WUHU216HW,2013-05-02 14:27:00,
2013-05-02 07:32:00,44.3,39.2,30.19,North,0,0.0,0.0,82,0.00,,,0.00,WUHU216HW,2013-05-02 14:32:00,
2013-05-02 07:37:00,44.8,39.3,30.19,North,0,0.0,0.0,81,0.00,,,0.00,WUHU216HW,2013-05-02 14:37:00,
2013-05-02 07:42:00,45.2,39.7,30.19,North,0,0.0,0.0,81,0.00,,,0.00,WUHU216HW,2013-05-02 14:42:00,
2013-05-02 07:47:00,45.7,40.2,30.19,North,0,0.0,0.0,81,0.00,,,0.00,WUHU216HW,2013-05-02 14:47:00,
2013-05-02 07:52:00,45.9,40.1,30.19,North,0,0.0,0.0,80,0.00,,,0.00,WUHU216HW,2013-05-02 14:52:00,
2013-05-02 07:57:00,46.3,40.5,30.19,North,0,0.0,0.0,80,0.00,,,0.00,WUHU216HW,2013-05-02 14:57:00,
2013-05-02 08:02:00,46.6,40.5,30.19,North,0,0.0,0.0,79,0.00,,,0.00,WUHU216HW,2013-05-02 15:02:00,
2013-05-02 08:07:00,47.2,41.3,30.19,North,0,0.0,0.0,80,0.00,,,0.00,WUHU216HW,2013-05-02 15:07:00,
2013-05-02 08:12:00,47.5,41.3,30.18,North,0,0.0,0.0,79,0.00,,,0.00,WUHU216HW,2013-05-02 15:12:00,
2013-05-02 08:17:00,48.1,41.8,30.18,North,0,0.0,0.0,79,0.00,,,0.00,WUHU216HW,2013-05-02 15:17:00,
2013-05-02 08:22:00,48.6,41.9,30.18,North,0,0.0,0.0,78,0.00,,,0.00,WUHU216HW,2013-05-02 15:22:00,
2013-05-02 08:27:00,49.1,42.5,30.18,North,0,0.0,0.0,78,0.00,,,0.00,WUHU216HW,2013-05-02 15:27:00,
2013-05-02 08:32:00,49.7,42.4,30.18,North,0,0.0,0.0,76,0.00,,,0.00,WUHU216HW,2013-05-02 15:32:00,
2013-05-02 08:37:00,50.0,42.4,30.18,North,0,0.0,0.0,75,0.00,,,0.00,WUHU216HW,2013-05-02 15:37:00,
2013-05-02 08:42:00,50.6,42.9,30.18,North,0,0.0,0.0,75,0.00,,,0.00,WUHU216HW,2013-05-02 15:42:00,
2013-05-02 08:47:00,51.1,42.5,30.18,North,0,0.0,0.0,72,0.00,,,0.00,WUHU216HW,2013-05-02 15:47:00,
2013-05-02 08:52:00,51.7,43.0,30.18,North,0,0.0,0.0,72,0.00,,,0.00,WUHU216HW,2013-05-02 15:52:00,
2013-05-02 08:57:00,52.2,43.5,30.18,North,0,0.0,0.0,72,0.00,,,0.00,WUHU216HW,2013-05-02 15:57:00,
2013-05-02 09:02:00,52.9,43.8,30.18,North,0,0.0,0.0,71,0.00,,,0.00,WUHU216HW,2013-05-02 16:02:00,
2013-05-02 09:07:00,53.3,43.0,30.17,North,0,0.0,0.0,68,0.00,,,0.00,WUHU216HW,2013-05-02 16:07:00,
2013-05-02 09:12:00,53.6,43.3,30.17,North,0,0.0,0.0,68,0.00,,,0.00,WUHU216HW,2013-05-02 16:12:00,
2013-05-02 09:17:00,53.8,43.5,30.17,North,0,0.0,0.0,68,0.00,,,0.00,WUHU216HW,2013-05-02 16:17:00,
2013-05-02 09:22:00,54.7,44.7,30.17,North,0,0.0,0.0,69,0.00,,,0.00,WUHU216HW,2013-05-02 16:22:00,
2013-05-02 09:27:00,55.3,44.1,30.17,North,0,0.0,0.0,66,0.00,,,0.00,WUHU216HW,2013-05-02 16:27:00,
2013-05-02 09:32:00,55.6,43.6,30.17,North,0,0.0,0.0,64,0.00,,,0.00,WUHU216HW,2013-05-02 16:32:00,
2013-05-02 09:37:00,55.8,42.6,30.16,North,0,0.0,0.0,61,0.00,,,0.00,WUHU216HW,2013-05-02 16:37:00,
2013-05-02 09:42:00,55.8,42.9,30.16,North,0,0.0,0.0,62,0.00,,,0.00,WUHU216HW,2013-05-02 16:42:00,
2013-05-02 09:47:00,56.0,43.6,30.16,North,0,0.0,0.0,63,0.00,,,0.00,WUHU216HW,2013-05-02 16:47:00,
2013-05-02 09:52:00,56.5,44.0,30.17,North,0,0.0,0.0,63,0.00,,,0.00,WUHU216HW,2013-05-02 16:52:00,
2013-05-02 09:57:00,57.4,42.8,30.16,North,0,0.0,0.0,58,0.00,,,0.00,WUHU216HW,2013-05-02 16:57:00,
2013-05-02 10:02:00,57.8,43.6,30.16,North,0,0.0,0.0,59,0.00,,,0.00,WUHU216HW,2013-05-02 17:02:00,
2013-05-02 10:07:00,58.1,43.9,30.16,North,0,0.0,0.0,59,0.00,,,0.00,WUHU216HW,2013-05-02 17:07:00,
2013-05-02 10:12:00,58.5,43.7,30.16,North,0,0.0,0.0,58,0.00,,,0.00,WUHU216HW,2013-05-02 17:12:00,
2013-05-02 10:17:00,58.7,43.9,30.16,North,0,0.0,0.0,58,0.00,,,0.00,WUHU216HW,2013-05-02 17:17:00,
2013-05-02 10:22:00,59.0,45.2,30.16,North,0,0.0,0.0,60,0.00,,,0.00,WUHU216HW,2013-05-02 17:22:00,
2013-05-02 10:27:00,59.4,44.7,30.16,North,0,0.0,0.0,58,0.00,,,0.00,WUHU216HW,2013-05-02 17:27:00,
2013-05-02 10:32:00,59.8,42.6,30.15,North,0,0.0,0.0,53,0.00,,,0.00,WUHU216HW,2013-05-02 17:32:00,
2013-05-02 10:37:00,59.9,42.8,30.15,North,0,0.0,0.0,53,0.00,,,0.00,WUHU216HW,2013-05-02 17:37:00,
2013-05-02 10:42:00,60.3,44.6,30.15,North,0,0.0,0.0,56,0.00,,,0.00,WUHU216HW,2013-05-02 17:42:00,
2013-05-02 10:47:00,60.8,44.6,30.15,North,0,0.0,0.0,55,0.00,,,0.00,WUHU216HW,2013-05-02 17:47:00,
2013-05-02 10:52:00,61.6,45.7,30.15,North,0,0.0,0.0,56,0.00,,,0.00,WUHU216HW,2013-05-02 17:52:00,
2013-05-02 10:57:00,62.1,47.2,30.15,North,0,0.0,0.0,58,0.00,,,0.00,WUHU216HW,2013-05-02 17:57:00,
2013-05-02 11:02:00,62.3,45.4,30.14,North,0,0.0,0.0,54,0.00,,,0.00,WUHU216HW,2013-05-02 18:02:00,
2013-05-02 11:07:00,62.3,45.4,30.14,North,0,0.0,0.0,54,0.00,,,0.00,WUHU216HW,2013-05-02 18:07:00,
2013-05-02 11:12:00,62.5,45.0,30.14,North,0,0.0,0.0,53,0.00,,,0.00,WUHU216HW,2013-05-02 18:12:00,
2013-05-02 11:17:00,63.0,46.5,30.14,North,0,0.0,0.0,55,0.00,,,0.00,WUHU216HW,2013-05-02 18:17:00,
2013-05-02 11:22:00,63.4,45.8,30.14,North,0,0.0,0.0,53,0.00,,,0.00,WUHU216HW,2013-05-02 18:22:00,
2013-05-02 11:27:00,63.7,46.6,30.14,North,0,0.0,0.0,54,0.00,,,0.00,WUHU216HW,2013-05-02 18:27:00,
2013-05-02 11:32:00,64.1,48.0,30.13,North,0,0.0,0.0,56,0.00,,,0.00,WUHU216HW,2013-05-02 18:32:00,
2013-05-02 11:37:00,64.4,46.8,30.14,North,0,0.0,0.0,53,0.00,,,0.00,WUHU216HW,2013-05-02 18:37:00,
2013-05-02 11:42:00,64.4,47.8,30.13,North,0,0.0,0.0,55,0.00,,,0.00,WUHU216HW,2013-05-02 18:42:00,
2013-05-02 11:47:00,65.2,48.1,30.13,North,0,0.0,0.0,54,0.00,,,0.00,WUHU216HW,2013-05-02 18:47:00,
2013-05-02 11:52:00,65.5,49.3,30.13,North,0,0.0,0.0,56,0.00,,,0.00,WUHU216HW,2013-05-02 18:52:00,
2013-05-02 11:57:00,66.2,49.2,30.13,North,0,0.0,0.0,54,0.00,,,0.00,WUHU216HW,2013-05-02 18:57:00,
2013-05-02 12:02:00,66.6,49.4,30.13,North,0,0.0,0.0,54,0.00,,,0.00,WUHU216HW,2013-05-02 19:02:00,
2013-05-02 12:07:00,66.6,48.4,30.13,North,0,0.0,0.0,52,0.00,,,0.00,WUHU216HW,2013-05-02 19:07:00,
2013-05-02 12:12:00,66.2,48.2,30.12,North,0,0.0,0.0,52,0.00,,,0.00,WUHU216HW,2013-05-02 19:12:00,
2013-05-02 12:17:00,66.8,49.6,30.12,North,0,0.0,0.0,54,0.00,,,0.00,WUHU216HW,2013-05-02 19:17:00,
2013-05-02 12:22:00,67.1,49.4,30.12,North,0,0.0,0.0,53,0.00,,,0.00,WUHU216HW,2013-05-02 19:22:00,
2013-05-02 12:27:00,67.5,50.2,30.12,North,0,0.0,0.0,54,0.00,,,0.00,WUHU216HW,2013-05-02 19:27:00,
2013-05-02 12:32:00,68.0,50.2,30.12,North,0,0.0,0.0,53,0.00,,,0.00,WUHU216HW,2013-05-02 19:32:00,
2013-05-02 12:37:00,68.0,49.8,30.12,North,0,0.0,0.0,52,0.00,,,0.00,WUHU216HW,2013-05-02 19:37:00,
2013-05-02 12:42:00,68.4,50.0,30.12,North,0,0.0,0.0,52,0.00,,,0.00,WUHU216HW,2013-05-02 19:42:00,
2013-05-02 12:47:00,68.8,50.4,30.12,North,0,0.0,0.0,52,0.00,,,0.00,WUHU216HW,2013-05-02 19:47:00,
2013-05-02 12:52:00,69.1,49.8,30.12,North,0,0.0,0.0,50,0.00,,,0.00,WUHU216HW,2013-05-02 19:52:00,
2013-05-02 12:57:00,69.3,50.0,30.11,North,0,0.0,0.0,50,0.00,,,0.00,WUHU216HW,2013-05-02 19:57:00,
2013-05-02 13:02:00,69.5,50.0,30.11,North,0,0.0,0.0,50,0.00,,,0.00,WUHU216HW,2013-05-02 20:02:00,
2013-05-02 13:07:00,69.5,50.0,30.11,North,0,0.0,0.0,50,0.00,,,0.00,WUHU216HW,2013-05-02 20:07:00,
2013-05-02 13:12:00,69.8,50.4,30.11,North,0,0.0,0.0,50,0.00,,,0.00,WUHU216HW,2013-05-02 20:12:00,
2013-05-02 13:17:00,70.2,50.1,30.11,North,0,0.0,0.0,49,0.00,,,0.00,WUHU216HW,2013-05-02 20:17:00,
2013-05-02 13:22:00,70.4,50.3,30.11,North,0,0.0,0.0,49,0.00,,,0.00,WUHU216HW,2013-05-02 20:22:00,
2013-05-02 13:27:00,70.9,51.4,30.11,North,0,0.0,0.0,50,0.00,,,0.00,WUHU216HW,2013-05-02 20:27:00,
2013-05-02 13:32:00,71.1,51.6,30.11,North,0,0.0,0.0,50,0.00,,,0.00,WUHU216HW,2013-05-02 20:32:00,
2013-05-02 13:37:00,70.9,48.4,30.11,North,0,0.0,0.0,45,0.00,,,0.00,WUHU216HW,2013-05-02 20:37:00,
2013-05-02 13:42:00,70.6,49.2,30.11,North,0,0.0,0.0,47,0.00,,,0.00,WUHU216HW,2013-05-02 20:42:00,
2013-05-02 13:47:00,70.7,47.1,30.10,North,0,0.0,0.0,43,0.00,,,0.00,WUHU216HW,2013-05-02 20:47:00,
2013-05-02 13:52:00,69.8,45.1,30.10,North,0,0.0,0.0,41,0.00,,,0.00,WUHU216HW,2013-05-02 20:52:00,
2013-05-02 13:57:00,69.5,45.4,30.10,North,0,0.0,0.0,42,0.00,,,0.00,WUHU216HW,2013-05-02 20:57:00,
2013-05-02 14:02:00,69.1,45.0,30.10,North,0,0.0,0.0,42,0.00,,,0.00,WUHU216HW,2013-05-02 21:02:00,
2013-05-02 14:07:00,68.8,44.6,30.10,North,0,0.0,0.0,42,0.00,,,0.00,WUHU216HW,2013-05-02 21:07:00,
2013-05-02 14:12:00,68.8,44.1,30.10,North,0,0.0,0.0,41,0.00,,,0.00,WUHU216HW,2013-05-02 21:12:00,
2013-05-02 14:17:00,68.0,42.1,30.10,North,0,0.0,0.0,39,0.00,,,0.00,WUHU216HW,2013-05-02 21:17:00,
2013-05-02 14:22:00,67.7,43.1,30.10,North,0,0.0,0.0,41,0.00,,,0.00,WUHU216HW,2013-05-02 21:22:00,
2013-05-02 14:27:00,67.7,43.8,30.10,North,0,0.0,0.0,42,0.00,,,0.00,WUHU216HW,2013-05-02 21:27:00,
2013-05-02 14:32:00,67.3,42.8,30.10,North,0,0.0,0.0,41,0.00,,,0.00,WUHU216HW,2013-05-02 21:32:00,
2013-05-02 14:37:00,67.1,42.0,30.10,North,0,0.0,0.0,40,0.00,,,0.00,WUHU216HW,2013-05-02 21:37:00,
2013-05-02 14:42:00,67.3,42.8,30.10,North,0,0.0,0.0,41,0.00,,,0.00,WUHU216HW,2013-05-02 21:42:00,
2013-05-02 14:47:00,67.1,42.7,30.10,North,0,0.0,0.0,41,0.00,,,0.00,WUHU216HW,2013-05-02 21:47:00,
2013-05-02 14:52:00,67.1,43.2,30.10,North,0,0.0,0.0,42,0.00,,,0.00,WUHU216HW,2013-05-02 21:52:00,
2013-05-02 14:57:00,67.0,43.7,30.10,North,0,0.0,0.0,43,0.00,,,0.00,WUHU216HW,2013-05-02 21:57:00,
2013-05-02 15:02:00,66.6,42.1,30.10,North,0,0.0,0.0,41,0.00,,,0.00,WUHU216HW,2013-05-02 22:02:00,
2013-05-02 15:07:00,65.9,41.5,30.10,North,0,0.0,0.0,41,0.00,,,0.00,WUHU216HW,2013-05-02 22:07:00,
2013-05-02 15:12:00,65.9,43.3,30.10,North,0,0.0,0.0,44,0.00,,,0.00,WUHU216HW,2013-05-02 22:12:00,
2013-05-02 15:17:00,65.9,44.5,30.10,North,0,0.0,0.0,46,0.00,,,0.00,WUHU216HW,2013-05-02 22:17:00,
2013-05-02 15:22:00,65.3,43.9,30.09,North,0,0.0,0.0,46,0.00,,,0.00,WUHU216HW,2013-05-02 22:22:00,
2013-05-02 15:27:00,65.0,44.7,30.09,North,0,0.0,0.0,48,0.00,,,0.00,WUHU216HW,2013-05-02 22:27:00,
2013-05-02 15:32:00,64.8,44.6,30.09,North,0,0.0,0.0,48,0.00,,,0.00,WUHU216HW,2013-05-02 22:32:00,
2013-05-02 15:37:00,64.8,44.6,30.10,North,0,0.0,0.0,48,0.00,,,0.00,WUHU216HW,2013-05-02 22:37:00,
2013-05-02 15:42:00,64.8,44.6,30.10,North,0,0.0,0.0,48,0.00,,,0.00,WUHU216HW,2013-05-02 22:42:00,
2013-05-02 15:47:00,64.8,44.6,30.09,North,0,0.0,0.0,48,0.00,,,0.00,WUHU216HW,2013-05-02 22:47:00,
2013-05-02 15:52:00,64.8,45.2,30.09,North,0,0.0,0.0,49,0.00,,,0.00,WUHU216HW,2013-05-02 22:52:00,
2013-05-02 15:57:00,64.8,44.0,30.09,North,0,0.0,0.0,47,0.00,,,0.00,WUHU216HW,2013-05-02 22:57:00,
2013-05-02 16:02:00,64.6,43.8,30.09,North,0,0.0,0.0,47,0.00,,,0.00,WUHU216HW,2013-05-02 23:02:00,
2013-05-02 16:07:00,64.6,43.8,30.09,North,0,0.0,0.0,47,0.00,,,0.00,WUHU216HW,2013-05-02 23:07:00,
2013-05-02 16:12:00,64.4,43.7,30.09,North,0,0.0,0.0,47,0.00,,,0.00,WUHU216HW,2013-05-02 23:12:00,
2013-05-02 16:17:00,64.4,43.7,30.09,North,0,0.0,0.0,47,0.00,,,0.00,WUHU216HW,2013-05-02 23:17:00,
2013-05-02 16:22:00,64.4,43.7,30.09,North,0,0.0,0.0,47,0.00,,,0.00,WUHU216HW,2013-05-02 23:22:00,
2013-05-02 16:27:00,64.6,44.4,30.08,North,0,0.0,0.0,48,0.00,,,0.00,WUHU216HW,2013-05-02 23:27:00,
2013-05-02 16:32:00,64.6,44.4,30.08,North,0,0.0,0.0,48,0.00,,,0.00,WUHU216HW,2013-05-02 23:32:00,
2013-05-02 16:37:00,64.6,43.2,30.08,North,0,0.0,0.0,46,0.00,,,0.00,WUHU216HW,2013-05-02 23:37:00,
2013-05-02 16:42:00,64.4,43.7,30.08,North,0,0.0,0.0,47,0.00,,,0.00,WUHU216HW,2013-05-02 23:42:00,
2013-05-02 16:47:00,64.4,43.7,30.08,North,0,0.0,0.0,47,0.00,,,0.00,WUHU216HW,2013-05-02 23:47:00,
2013-05-02 16:52:00,64.4,43.0,30.08,North,0,0.0,0.0,46,0.00,,,0.00,WUHU216HW,2013-05-02 23:52:00,
2013-05-02 16:57:00,64.3,42.9,30.08,North,0,0.0,0.0,46,0.00,,,0.00,WUHU216HW,2013-05-02 23:57:00,
2013-05-02 17:02:00,64.1,42.8,30.08,North,0,0.0,0.0,46,0.00,,,0.00,WUHU216HW,2013-05-03 00:02:00,
2013-05-02 17:07:00,63.9,42.6,30.08,North,0,0.0,0.0,46,0.00,,,0.00,WUHU216HW,2013-05-03 00:07:00,
2013-05-02 17:12:00,63.7,43.0,30.08,North,0,0.0,0.0,47,0.00,,,0.00,WUHU216HW,2013-05-03 00:12:00,
2013-05-02 17:17:00,63.9,42.6,30.08,North,0,0.0,0.0,46,0.00,,,0.00,WUHU216HW,2013-05-03 00:17:00,
2013-05-02 17:22:00,63.7,41.9,30.08,North,0,0.0,0.0,45,0.00,,,0.00,WUHU216HW,2013-05-03 00:22:00,
2013-05-02 17:27:00,63.4,42.1,30.08,North,0,0.0,0.0,46,0.00,,,0.00,WUHU216HW,2013-05-03 00:27:00,
2013-05-02 17:32:00,63.0,41.2,30.08,North,0,0.0,0.0,45,0.00,,,0.00,WUHU216HW,2013-05-03 00:32:00,
2013-05-02 17:37:00,63.0,41.8,30.08,North,0,0.0,0.0,46,0.00,,,0.00,WUHU216HW,2013-05-03 00:37:00,
2013-05-02 17:42:00,62.8,41.6,30.08,North,0,0.0,0.0,46,0.00,,,0.00,WUHU216HW,2013-05-03 00:42:00,
2013-05-02 17:47:00,62.5,41.9,30.08,North,0,0.0,0.0,47,0.00,,,0.00,WUHU216HW,2013-05-03 00:47:00,
2013-05-02 17:52:00,62.3,41.7,30.08,North,0,0.0,0.0,47,0.00,,,0.00,WUHU216HW,2013-05-03 00:52:00,
2013-05-02 17:57:00,62.1,42.1,30.08,North,0,0.0,0.0,48,0.00,,,0.00,WUHU216HW,2013-05-03 00:57:00,
2013-05-02 18:02:00,61.7,41.2,30.09,North,0,0.0,0.0,47,0.00,,,0.00,WUHU216HW,2013-05-03 01:02:00,
2013-05-02 18:07:00,61.4,40.3,30.09,North,0,0.0,0.0,46,0.00,,,0.00,WUHU216HW,2013-05-03 01:07:00,
2013-05-02 18:12:00,61.2,39.0,30.09,North,0,0.0,0.0,44,0.00,,,0.00,WUHU216HW,2013-05-03 01:12:00,
2013-05-02 18:17:00,60.5,38.3,30.09,North,0,0.0,0.0,44,0.00,,,0.00,WUHU216HW,2013-05-03 01:17:00,
2013-05-02 18:22:00,59.9,38.4,30.09,North,0,0.0,0.0,45,0.00,,,0.00,WUHU216HW,2013-05-03 01:22:00,
2013-05-02 18:27:00,59.8,38.9,30.09,North,0,0.0,0.0,46,0.00,,,0.00,WUHU216HW,2013-05-03 01:27:00,
2013-05-02 18:32:00,59.4,39.1,30.09,North,0,0.0,0.0,47,0.00,,,0.00,WUHU216HW,2013-05-03 01:32:00,
2013-05-02 18:37:00,59.2,39.5,30.09,North,0,0.0,0.0,48,0.00,,,0.00,WUHU216HW,2013-05-03 01:37:00,
2013-05-02 18:42:00,58.9,38.6,30.09,North,0,0.0,0.0,47,0.00,,,0.00,WUHU216HW,2013-05-03 01:42:00,
2013-05-02 18:47:00,58.7,39.1,30.09,North,0,0.0,0.0,48,0.00,,,0.00,WUHU216HW,2013-05-03 01:47:00,
2013-05-02 18:52:00,58.7,39.6,30.09,North,0,0.0,0.0,49,0.00,,,0.00,WUHU216HW,2013-05-03 01:52:00,
2013-05-02 18:57:00,58.3,40.3,30.09,North,0,0.0,0.0,51,0.00,,,0.00,WUHU216HW,2013-05-03 01:57:00,
2013-05-02 19:02:00,58.1,40.6,30.09,North,0,0.0,0.0,52,0.00,,,0.00,WUHU216HW,2013-05-03 02:02:00,
2013-05-02 19:07:00,58.0,41.0,30.09,North,0,0.0,0.0,53,0.00,,,0.00,WUHU216HW,2013-05-03 02:07:00,
2013-05-02 19:12:00,57.6,41.0,30.08,North,0,0.0,0.0,54,0.00,,,0.00,WUHU216HW,2013-05-03 02:12:00,
2013-05-02 19:17:00,57.4,41.0,30.08,North,0,0.0,0.0,54,0.00,,,0.00,WUHU216HW,2013-05-03 02:17:00,
2013-05-02 19:22:00,57.4,41.4,30.08,North,0,0.0,0.0,55,0.00,,,0.00,WUHU216HW,2013-05-03 02:22:00,
2013-05-02 19:27:00,57.2,40.8,30.08,North,0,0.0,0.0,54,0.00,,,0.00,WUHU216HW,2013-05-03 02:27:00,
2013-05-02 19:32:00,57.2,40.8,30.07,North,0,0.0,0.0,54,0.00,,,0.00,WUHU216HW,2013-05-03 02:32:00,
2013-05-02 19:37:00,57.2,40.8,30.07,North,0,0.0,0.0,54,0.00,,,0.00,WUHU216HW,2013-05-03 02:37:00,
2013-05-02 19:42:00,57.2,40.8,30.07,North,0,0.0,0.0,54,0.00,,,0.00,WUHU216HW,2013-05-03 02:42:00,
2013-05-02 19:47:00,57.2,40.8,30.07,North,0,0.0,0.0,54,0.00,,,0.00,WUHU216HW,2013-05-03 02:47:00,
2013-05-02 19:52:00,57.1,40.6,30.07,North,0,0.0,0.0,54,0.00,,,0.00,WUHU216HW,2013-05-03 02:52:00,
2013-05-02 19:57:00,57.1,40.6,30.07,North,0,0.0,0.0,54,0.00,,,0.00,WUHU216HW,2013-05-03 02:57:00,
2013-05-02 20:02:00,56.9,40.4,30.07,North,0,0.0,0.0,54,0.00,,,0.00,WUHU216HW,2013-05-03 03:02:00,
2013-05-02 20:07:00,56.9,40.4,30.07,North,0,0.0,0.0,54,0.00,,,0.00,WUHU216HW,2013-05-03 03:07:00,
2013-05-02 20:12:00,56.9,40.4,30.07,North,0,0.0,0.0,54,0.00,,,0.00,WUHU216HW,2013-05-03 03:12:00,
2013-05-02 20:17:00,56.5,40.5,30.07,North,0,0.0,0.0,55,0.00,,,0.00,WUHU216HW,2013-05-03 03:17:00,
2013-05-02 20:22:00,56.5,40.5,30.07,North,0,0.0,0.0,55,0.00,,,0.00,WUHU216HW,2013-05-03 03:22:00,
2013-05-02 20:27:00,56.3,40.8,30.07,North,0,0.0,0.0,56,0.00,,,0.00,WUHU216HW,2013-05-03 03:27:00,
2013-05-02 20:32:00,56.2,40.6,30.07,North,0,0.0,0.0,56,0.00,,,0.00,WUHU216HW,2013-05-03 03:32:00,
2013-05-02 20:37:00,56.0,40.4,30.07,North,0,0.0,0.0,56,0.00,,,0.00,WUHU216HW,2013-05-03 03:37:00,
2013-05-02 20:42:00,56.0,40.4,30.08,North,0,0.0,0.0,56,0.00,,,0.00,WUHU216HW,2013-05-03 03:42:00,
2013-05-02 20:47:00,55.8,41.2,30.08,North,0,0.0,0.0,58,0.00,,,0.00,WUHU216HW,2013-05-03 03:47:00,
2013-05-02 20:52:00,55.6,41.1,30.08,North,0,0.0,0.0,58,0.00,,,0.00,WUHU216HW,2013-05-03 03:52:00,
2013-05-02 20:57:00,55.6,41.5,30.08,North,0,0.0,0.0,59,0.00,,,0.00,WUHU216HW,2013-05-03 03:57:00,
2013-05-02 21:01:00,55.4,41.8,30.08,North,0,0.0,0.0,60,0.00,,,0.00,WUHU216HW,2013-05-03 04:01:00,
2013-05-02 21:06:00,55.1,41.4,30.08,North,0,0.0,0.0,60,0.00,,,0.00,WUHU216HW,2013-05-03 04:06:00,
2013-05-02 21:11:00,54.9,42.1,30.08,North,0,0.0,0.0,62,0.00,,,0.00,WUHU216HW,2013-05-03 04:11:00,
2013-05-02 21:16:00,54.7,42.0,30.08,North,0,0.0,0.0,62,0.00,,,0.00,WUHU216HW,2013-05-03 04:16:00,
2013-05-02 21:21:00,54.5,42.2,30.08,North,0,0.0,0.0,63,0.00,,,0.00,WUHU216HW,2013-05-03 04:21:00,
2013-05-02 21:26:00,54.4,42.4,30.08,North,0,0.0,0.0,64,0.00,,,0.00,WUHU216HW,2013-05-03 04:26:00,
2013-05-02 21:31:00,54.2,42.2,30.08,North,0,0.0,0.0,64,0.00,,,0.00,WUHU216HW,2013-05-03 04:31:00,
2013-05-02 21:36:00,54.0,42.5,30.08,North,0,0.0,0.0,65,0.00,,,0.00,WUHU216HW,2013-05-03 04:36:00,
2013-05-02 21:41:00,54.0,42.0,30.09,North,0,0.0,0.0,64,0.00,,,0.00,WUHU216HW,2013-05-03 04:41:00,
2013-05-02 21:46:00,53.8,43.1,30.08,North,0,0.0,0.0,67,0.00,,,0.00,WUHU216HW,2013-05-03 04:46:00,
2013-05-02 21:51:00,53.6,42.9,30.09,North,0,0.0,0.0,67,0.00,,,0.00,WUHU216HW,2013-05-03 04:51:00,
2013-05-02 21:56:00,53.6,42.9,30.08,North,0,0.0,0.0,67,0.00,,,0.00,WUHU216HW,2013-05-03 04:56:00,
2013-05-02 22:01:00,53.6,43.3,30.08,North,0,0.0,0.0,68,0.00,,,0.00,WUHU216HW,2013-05-03 05:01:00,
2013-05-02 22:06:00,53.5,43.6,30.08,North,0,0.0,0.0,69,0.00,,,0.00,WUHU216HW,2013-05-03 05:06:00,
2013-05-02 22:11:00,53.3,43.4,30.08,North,0,0.0,0.0,69,0.00,,,0.00,WUHU216HW,2013-05-03 05:11:00,
2013-05-02 22:16:00,53.1,43.2,30.08,North,0,0.0,0.0,69,0.00,,,0.00,WUHU216HW,2013-05-03 05:16:00,
2013-05-02 22:21:00,53.1,43.2,30.08,North,0,0.0,0.0,69,0.00,,,0.00,WUHU216HW,2013-05-03 05:21:00,
2013-05-02 22:26:00,52.9,43.5,30.08,North,0,0.0,0.0,70,0.00,,,0.00,WUHU216HW,2013-05-03 05:26:00,
2013-05-02 22:31:00,52.9,43.0,30.08,North,0,0.0,0.0,69,0.00,,,0.00,WUHU216HW,2013-05-03 05:31:00,
2013-05-02 22:36:00,52.7,43.3,30.08,North,0,0.0,0.0,70,0.00,,,0.00,WUHU216HW,2013-05-03 05:36:00,
2013-05-02 22:41:00,52.6,43.1,30.08,North,0,0.0,0.0,70,0.00,,,0.00,WUHU216HW,2013-05-03 05:41:00,
2013-05-02 22:46:00,52.4,42.9,30.08,North,0,0.0,0.0,70,0.00,,,0.00,WUHU216HW,2013-05-03 05:46:00,
2013-05-02 22:51:00,52.2,42.9,30.08,North,0,0.0,0.0,70,0.00,,,0.00,WUHU216HW,2013-05-03 05:51:00,
2013-05-02 22:56:00,52.2,43.1,30.08,North,0,0.0,0.0,71,0.00,,,0.00,WUHU216HW,2013-05-03 05:56:00,
2013-05-02 23:01:00,52.0,43.0,30.08,North,0,0.0,0.0,71,0.00,,,0.00,WUHU216HW,2013-05-03 06:01:00,
2013-05-02 23:06:00,51.8,42.0,30.08,North,0,0.0,0.0,69,0.00,,,0.00,WUHU216HW,2013-05-03 06:06:00,
2013-05-02 23:11:00,51.8,42.9,30.08,North,0,0.0,0.0,71,0.00,,,0.00,WUHU216HW,2013-05-03 06:11:00,
2013-05-02 23:16:00,51.5,42.1,30.09,North,0,0.0,0.0,70,0.00,,,0.00,WUHU216HW,2013-05-03 06:16:00,
2013-05-02 23:21:00,51.5,41.7,30.08,North,0,0.0,0.0,69,0.00,,,0.00,WUHU216HW,2013-05-03 06:21:00,
2013-05-02 23:26:00,51.3,41.5,30.08,North,0,0.0,0.0,69,0.00,,,0.00,WUHU216HW,2013-05-03 06:26:00,
2013-05-02 23:31:00,51.1,41.3,30.08,North,0,0.0,0.0,69,0.00,,,0.00,WUHU216HW,2013-05-03 06:31:00,
2013-05-02 23:36:00,50.8,41.1,30.08,North,0,0.0,0.0,69,0.00,,,0.00,WUHU216HW,2013-05-03 06:36:00,
2013-05-02 23:41:00,50.6,40.9,30.08,North,0,0.0,0.0,69,0.00,,,0.00,WUHU216HW,2013-05-03 06:41:00,
2013-05-02 23:46:00,50.2,40.9,30.08,North,0,0.0,0.0,70,0.00,,,0.00,WUHU216HW,2013-05-03 06:46:00,
2013-05-02 23:51:00,50.0,40.7,30.08,North,0,0.0,0.0,70,0.00,,,0.00,WUHU216HW,2013-05-03 06:51:00,
2013-05-02 23:56:00,49.7,40.3,30.08,North,0,0.0,0.0,70,0.00,,,0.00,WUHU216HW,2013-05-03 06:56:00,